Time;durP1;ratioP1;P1;durP2;ratioP2;P2;SDS_P1;SDS_P2;PMS_P1;PMS_P2;Temp;Humidity;BMP_temperature;BMP_pressure;BME280_temperature;BME280_humidity;BME280_pressure;Samples;Min_cycle;Max_cycle;Signal;HPM_P1;HPM_P2
2022/03/20 00:01:19;;;;;;;20.15;13.23;;;;;;;;;;6076554;23;20450;-83
2022/03/20 00:03:48;;;;;;;19.98;15.27;;;;;;;;;;6096626;23;20044;-82
2022/03/20 00:06:16;;;;;;;21.38;14.50;;;;;;;;;;6072055;23;20037;-82
2022/03/20 00:08:44;;;;;;;18.77;12.00;;;;;;;;;;6095146;23;20022;-82
2022/03/20 00:11:12;;;;;;;17.52;13.18;;;;;;;;;;6072592;23;20513;-82
2022/03/20 00:13:40;;;;;;;16.17;9.23;;;;;;;;;;6049490;23;20476;-82
2022/03/20 00:16:10;;;;;;;19.45;13.88;;;;;;;;;;6131858;23;20018;-82
2022/03/20 00:18:43;;;;;;;22.42;11.68;;;;;;;;;;6123641;23;20335;-82
2022/03/20 00:21:12;;;;;;;12.63;10.93;;;;;;;;;;6074059;23;20029;-82
2022/03/20 00:23:40;;;;;;;17.58;15.25;;;;;;;;;;6050460;23;20018;-82
2022/03/20 00:26:09;;;;;;;30.90;14.32;;;;;;;;;;6049440;23;20060;-82
2022/03/20 00:28:37;;;;;;;14.55;9.32;;;;;;;;;;6049692;23;20018;-82
2022/03/20 00:31:06;;;;;;;23.20;14.95;;;;;;;;;;6108481;23;20021;-82
2022/03/20 00:33:34;;;;;;;11.38;10.25;;;;;;;;;;6049912;23;20433;-81
2022/03/20 00:36:02;;;;;;;23.75;15.35;;;;;;;;;;6097725;23;20342;-82
2022/03/20 00:38:30;;;;;;;20.02;15.00;;;;;;;;;;6107995;23;20018;-82
2022/03/20 00:40:58;;;;;;;18.17;15.18;;;;;;;;;;6103210;23;20624;-81
2022/03/20 00:43:26;;;;;;;25.13;14.75;;;;;;;;;;6084400;23;20029;-82
2022/03/20 00:45:54;;;;;;;21.25;15.10;;;;;;;;;;6097727;23;20053;-81
2022/03/20 00:48:23;;;;;;;16.33;11.40;;;;;;;;;;6082430;23;20029;-82
2022/03/20 00:50:53;;;;;;;19.55;16.27;;;;;;;;;;6097746;23;20025;-82
2022/03/20 00:53:21;;;;;;;13.80;10.70;;;;;;;;;;6127954;23;20022;-82
2022/03/20 00:55:49;;;;;;;16.58;11.80;;;;;;;;;;6107640;23;20328;-81
2022/03/20 00:58:17;;;;;;;20.60;13.43;;;;;;;;;;6098592;23;20029;-82
2022/03/20 01:00:47;;;;;;;17.40;9.10;;;;;;;;;;6080903;23;20022;-82
2022/03/20 01:03:15;;;;;;;23.58;14.60;;;;;;;;;;6108421;23;20041;-82
2022/03/20 01:05:43;;;;;;;22.67;13.13;;;;;;;;;;6100443;23;20033;-81
2022/03/20 01:08:11;;;;;;;19.50;11.82;;;;;;;;;;6131894;23;20018;-82
2022/03/20 01:10:40;;;;;;;20.98;13.77;;;;;;;;;;6133727;23;20029;-82
2022/03/20 01:13:08;;;;;;;16.70;12.82;;;;;;;;;;6097067;23;20017;-81
2022/03/20 01:15:36;;;;;;;20.75;12.70;;;;;;;;;;6134598;23;20017;-81
2022/03/20 01:18:04;;;;;;;22.75;13.35;;;;;;;;;;6099540;23;20029;-82
2022/03/20 01:20:35;;;;;;;21.17;13.40;;;;;;;;;;6104651;23;20030;-81
2022/03/20 01:23:03;;;;;;;24.58;11.55;;;;;;;;;;6097728;23;20018;-81
2022/03/20 01:25:31;;;;;;;19.35;12.55;;;;;;;;;;6126510;23;20029;-81
2022/03/20 01:27:59;;;;;;;22.05;14.50;;;;;;;;;;6073818;23;20342;-81
2022/03/20 01:30:27;;;;;;;20.70;15.52;;;;;;;;;;6097193;23;20473;-82
2022/03/20 01:32:55;;;;;;;22.63;13.63;;;;;;;;;;6103399;23;20086;-82
2022/03/20 01:35:23;;;;;;;28.85;13.23;;;;;;;;;;6133232;23;20346;-82
2022/03/20 01:37:51;;;;;;;22.02;13.27;;;;;;;;;;6125138;23;20018;-81
2022/03/20 01:40:19;;;;;;;28.17;15.75;;;;;;;;;;6096208;23;20018;-81
2022/03/20 01:42:48;;;;;;;21.60;13.13;;;;;;;;;;6133619;23;20033;-81
2022/03/20 01:45:17;;;;;;;14.00;11.18;;;;;;;;;;6073281;23;20450;-82
2022/03/20 01:47:47;;;;;;;20.55;13.27;;;;;;;;;;6096757;23;20025;-82
2022/03/20 01:50:19;;;;;;;24.20;13.73;;;;;;;;;;6123658;23;20029;-83
2022/03/20 01:52:48;;;;;;;11.50;10.52;;;;;;;;;;6129900;23;20030;-82
2022/03/20 01:55:17;;;;;;;23.00;14.10;;;;;;;;;;6133181;23;20018;-82
2022/03/20 01:57:45;;;;;;;16.20;14.30;;;;;;;;;;6125764;23;20449;-82
2022/03/20 02:00:16;;;;;;;23.42;13.38;;;;;;;;;;6106187;23;20014;-82
2022/03/20 02:02:44;;;;;;;23.58;14.65;;;;;;;;;;6107326;23;20017;-76
2022/03/20 02:05:14;;;;;;;15.10;10.60;;;;;;;;;;6127724;23;20033;-76
2022/03/20 02:07:42;;;;;;;14.50;12.45;;;;;;;;;;6132935;23;20430;-76
2022/03/20 02:10:11;;;;;;;18.10;13.07;;;;;;;;;;6123872;23;20025;-76
2022/03/20 02:12:39;;;;;;;25.75;14.82;;;;;;;;;;6100756;23;20022;-76
2022/03/20 02:15:09;;;;;;;17.92;11.50;;;;;;;;;;6107446;23;20469;-76
2022/03/20 02:17:38;;;;;;;15.32;12.43;;;;;;;;;;6100402;23;20508;-76
2022/03/20 02:20:08;;;;;;;29.00;12.35;;;;;;;;;;6132283;23;20022;-76
2022/03/20 02:22:40;;;;;;;23.20;15.30;;;;;;;;;;6133559;23;20013;-76
2022/03/20 02:25:10;;;;;;;30.60;15.80;;;;;;;;;;6127709;23;20030;-76
2022/03/20 02:27:39;;;;;;;29.77;16.40;;;;;;;;;;6132680;23;20021;-76
2022/03/20 02:30:16;;;;;;;16.88;11.95;;;;;;;;;;6124178;23;20030;-76
2022/03/20 02:32:46;;;;;;;23.35;14.95;;;;;;;;;;6129259;23;20026;-76
2022/03/20 02:35:15;;;;;;;23.00;14.07;;;;;;;;;;6132924;23;20031;-76
2022/03/20 02:37:47;;;;;;;19.52;11.75;;;;;;;;;;6124586;23;20458;-76
2022/03/20 02:40:17;;;;;;;20.55;15.20;;;;;;;;;;6131144;23;20021;-76
2022/03/20 02:42:48;;;;;;;27.90;16.52;;;;;;;;;;6132630;23;20010;-76
2022/03/20 02:45:19;;;;;;;24.25;15.43;;;;;;;;;;6127402;23;20026;-76
2022/03/20 02:47:48;;;;;;;24.27;15.38;;;;;;;;;;6096813;23;20018;-76
2022/03/20 02:50:18;;;;;;;15.02;12.32;;;;;;;;;;6122652;23;20343;-76
2022/03/20 02:52:58;;;;;;;12.07;7.90;;;;;;;;;;6129461;23;20022;-76
2022/03/20 02:55:31;;;;;;;15.07;8.40;;;;;;;;;;6131065;23;20070;-76
2022/03/20 02:58:01;;;;;;;17.75;13.40;;;;;;;;;;6123817;23;20022;-76
2022/03/20 03:00:30;;;;;;;14.32;9.73;;;;;;;;;;6096646;23;20080;-76
2022/03/20 03:03:00;;;;;;;18.98;15.90;;;;;;;;;;6132625;23;20014;-76
2022/03/20 03:05:29;;;;;;;21.98;13.88;;;;;;;;;;6125884;23;20029;-76
2022/03/20 03:11:01;;;;;;;15.43;13.85;;;;;;;;;;6106909;23;20026;-76
2022/03/20 03:13:37;;;;;;;23.05;15.20;;;;;;;;;;6097454;23;20025;-76
2022/03/20 03:16:11;;;;;;;22.92;14.05;;;;;;;;;;6131642;23;20021;-76
2022/03/20 03:18:40;;;;;;;17.27;11.10;;;;;;;;;;6106912;23;20029;-76
2022/03/20 03:21:15;;;;;;;16.52;12.50;;;;;;;;;;6127509;23;20022;-76
2022/03/20 03:23:43;;;;;;;24.25;15.15;;;;;;;;;;6132671;23;20014;-76
2022/03/20 03:26:11;;;;;;;8.32;5.93;;;;;;;;;;6122386;23;20030;-76
2022/03/20 03:28:40;;;;;;;18.52;10.07;;;;;;;;;;6102875;23;20454;-76
2022/03/20 03:31:11;;;;;;;20.25;15.10;;;;;;;;;;6132847;23;20017;-76
2022/03/20 03:35:41;;;;;;;;;;;;;;;;;;6099959;23;20022;-76
2022/03/20 03:36:27;;;;;;;26.17;18.42;;;;;;;;;;6128823;23;19921;-76
2022/03/20 03:38:55;;;;;;;20.45;15.20;;;;;;;;;;6132383;23;20021;-76
2022/03/20 03:41:24;;;;;;;25.90;13.63;;;;;;;;;;6125649;23;20034;-76
2022/03/20 03:43:52;;;;;;;16.58;12.05;;;;;;;;;;6096310;23;20025;-76
2022/03/20 03:46:20;;;;;;;27.13;14.18;;;;;;;;;;6124053;23;20026;-76
2022/03/20 03:48:48;;;;;;;25.50;17.08;;;;;;;;;;6130465;23;20034;-76
2022/03/20 03:51:16;;;;;;;24.92;16.83;;;;;;;;;;6098489;23;20369;-76
2022/03/20 03:53:44;;;;;;;21.08;10.70;;;;;;;;;;6126077;23;20038;-76
2022/03/20 03:56:12;;;;;;;14.40;10.77;;;;;;;;;;6132080;23;20014;-76
2022/03/20 03:58:40;;;;;;;22.15;15.43;;;;;;;;;;6133730;23;20014;-76
2022/03/20 04:01:09;;;;;;;27.80;16.33;;;;;;;;;;6073645;23;20022;-76
2022/03/20 04:03:37;;;;;;;27.73;15.63;;;;;;;;;;6134235;23;20010;-76
2022/03/20 04:06:05;;;;;;;30.95;15.88;;;;;;;;;;6099289;23;20030;-76
2022/03/20 04:08:35;;;;;;;17.08;15.32;;;;;;;;;;6131438;23;20029;-76
2022/03/20 04:11:03;;;;;;;25.85;15.30;;;;;;;;;;6097857;23;20014;-76
2022/03/20 04:13:31;;;;;;;24.02;14.07;;;;;;;;;;6123694;23;20030;-76
2022/03/20 04:16:00;;;;;;;24.38;11.98;;;;;;;;;;6133880;23;20014;-76
2022/03/20 04:18:29;;;;;;;27.63;15.55;;;;;;;;;;6134224;23;20025;-76
2022/03/20 04:20:57;;;;;;;21.02;15.98;;;;;;;;;;6096985;23;20482;-76
2022/03/20 04:26:14;;;;;;;34.83;15.23;;;;;;;;;;6123603;23;20025;-76
2022/03/20 04:28:44;;;;;;;26.13;17.65;;;;;;;;;;6130046;23;20029;-76
2022/03/20 04:31:15;;;;;;;11.50;9.15;;;;;;;;;;6124678;23;20021;-76
2022/03/20 04:34:06;;;;;;;16.33;8.02;;;;;;;;;;6100451;23;20026;-76
2022/03/20 04:37:31;;;;;;;20.48;16.20;;;;;;;;;;6128335;23;20033;-76
2022/03/20 04:41:00;;;;;;;29.55;18.38;;;;;;;;;;6106217;23;20022;-76
2022/03/20 04:44:45;;;;;;;28.88;14.52;;;;;;;;;;6131520;23;20018;-76
2022/03/20 04:59:06;;;;;;;24.45;15.85;;;;;;;;;;6133420;23;20014;-76
2022/03/20 05:01:34;;;;;;;22.33;13.95;;;;;;;;;;6126301;23;20037;-76
2022/03/20 05:04:02;;;;;;;29.48;15.05;;;;;;;;;;6133168;23;20014;-76
2022/03/20 05:06:30;;;;;;;27.23;15.82;;;;;;;;;;6107621;23;20021;-76
2022/03/20 05:13:19;;;;;;;35.40;16.92;;;;;;;;;;6129425;23;20057;-76
2022/03/20 05:14:33;;;;;;;22.80;13.88;;;;;;;;;;6105810;23;20030;-76
2022/03/20 05:17:06;;;;;;;27.88;16.38;;;;;;;;;;6103421;23;20480;-79
2022/03/20 05:19:35;;;;;;;27.15;14.23;;;;;;;;;;6050809;23;20022;-79
2022/03/20 05:22:04;;;;;;;22.02;14.35;;;;;;;;;;6074739;23;20032;-79
2022/03/20 05:24:36;;;;;;;14.35;10.43;;;;;;;;;;6049930;23;20037;-79
2022/03/20 05:27:05;;;;;;;22.80;16.83;;;;;;;;;;6083523;23;20021;-79
2022/03/20 05:29:33;;;;;;;27.75;17.77;;;;;;;;;;6048786;23;20264;-79
2022/03/20 05:32:03;;;;;;;26.67;14.90;;;;;;;;;;6083480;23;20446;-79
2022/03/20 05:34:32;;;;;;;12.52;10.00;;;;;;;;;;6050446;23;20362;-79
2022/03/20 05:37:01;;;;;;;29.33;17.00;;;;;;;;;;6103046;23;20029;-79
2022/03/20 05:39:30;;;;;;;29.88;17.05;;;;;;;;;;6134108;23;20017;-79
2022/03/20 05:41:58;;;;;;;36.35;19.02;;;;;;;;;;6096999;23;20037;-79
2022/03/20 05:44:27;;;;;;;16.20;9.75;;;;;;;;;;6073555;23;20029;-79
2022/03/20 05:46:57;;;;;;;28.67;17.77;;;;;;;;;;6108156;23;20017;-79
2022/03/20 05:49:25;;;;;;;35.05;15.30;;;;;;;;;;6072912;23;20033;-79
2022/03/20 05:51:54;;;;;;;23.73;14.45;;;;;;;;;;6107870;23;20014;-79
2022/03/20 05:54:23;;;;;;;26.90;16.85;;;;;;;;;;6123097;23;20018;-79
2022/03/20 05:59:38;;;;;;;25.45;15.68;;;;;;;;;;6133089;23;20010;-79
2022/03/20 06:02:08;;;;;;;23.15;13.18;;;;;;;;;;6124148;23;20037;-79
2022/03/20 06:04:37;;;;;;;17.58;9.13;;;;;;;;;;6104606;23;20346;-79
2022/03/20 06:07:06;;;;;;;21.73;15.05;;;;;;;;;;6083783;23;20009;-79
2022/03/20 06:09:34;;;;;;;34.65;25.60;;;;;;;;;;6076582;23;20357;-78
2022/03/20 06:12:02;;;;;;;17.08;11.50;;;;;;;;;;6129685;23;20030;-79
2022/03/20 06:14:30;;;;;;;36.10;15.10;;;;;;;;;;6097113;23;20018;-79
2022/03/20 06:16:58;;;;;;;24.95;16.38;;;;;;;;;;6079362;23;20026;-79
2022/03/20 06:19:27;;;;;;;21.30;13.52;;;;;;;;;;6107420;23;20021;-79
2022/03/20 06:21:55;;;;;;;23.25;16.23;;;;;;;;;;6048169;23;20574;-79
2022/03/20 06:24:23;;;;;;;22.67;14.38;;;;;;;;;;6081396;23;20025;-79
2022/03/20 06:26:51;;;;;;;21.52;14.27;;;;;;;;;;6073259;23;20018;-79
2022/03/20 06:29:20;;;;;;;22.30;12.40;;;;;;;;;;6072736;23;20033;-79
2022/03/20 06:31:50;;;;;;;13.43;8.20;;;;;;;;;;6050277;23;20022;-79
2022/03/20 06:34:18;;;;;;;35.92;18.95;;;;;;;;;;6048930;23;20033;-79
2022/03/20 06:36:46;;;;;;;23.15;14.32;;;;;;;;;;6072223;23;20022;-80
2022/03/20 06:39:15;;;;;;;29.40;17.77;;;;;;;;;;6106622;23;20018;-79
2022/03/20 06:41:43;;;;;;;28.40;15.02;;;;;;;;;;6075070;23;20038;-79
2022/03/20 06:44:15;;;;;;;26.63;15.60;;;;;;;;;;6048766;23;20029;-79
2022/03/20 06:46:45;;;;;;;26.77;17.05;;;;;;;;;;6096946;23;20040;-79
2022/03/20 06:49:14;;;;;;;20.60;13.65;;;;;;;;;;6077437;23;20029;-79
2022/03/20 06:51:42;;;;;;;21.90;13.88;;;;;;;;;;6072488;23;20018;-79
2022/03/20 06:54:10;;;;;;;13.35;10.32;;;;;;;;;;6123184;23;20627;-79
2022/03/20 06:56:38;;;;;;;20.25;12.68;;;;;;;;;;6128751;23;20033;-79
2022/03/20 06:59:10;;;;;;;20.70;15.27;;;;;;;;;;6049383;23;20022;-79
2022/03/20 07:01:41;;;;;;;19.98;13.65;;;;;;;;;;6076248;23;20246;-79
2022/03/20 07:04:11;;;;;;;16.02;13.57;;;;;;;;;;6072026;23;20029;-79
2022/03/20 07:06:40;;;;;;;24.42;14.77;;;;;;;;;;6072985;23;20018;-79
2022/03/20 07:09:08;;;;;;;11.05;9.57;;;;;;;;;;6101368;23;20809;-79
2022/03/20 07:11:36;;;;;;;24.30;16.00;;;;;;;;;;6131610;23;20010;-80
2022/03/20 07:14:04;;;;;;;22.73;15.93;;;;;;;;;;6072249;23;20026;-79
2022/03/20 07:16:33;;;;;;;18.48;13.32;;;;;;;;;;6104240;23;20379;-79
2022/03/20 07:19:02;;;;;;;20.17;13.68;;;;;;;;;;6072137;23;20018;-79
2022/03/20 07:21:32;;;;;;;42.72;14.50;;;;;;;;;;6048643;23;20029;-79
2022/03/20 07:24:01;;;;;;;22.85;14.73;;;;;;;;;;6096355;23;20028;-79
2022/03/20 07:29:30;;;;;;;21.58;14.85;;;;;;;;;;5947543;23;20849;-79
2022/03/20 07:31:59;;;;;;;16.90;11.73;;;;;;;;;;6132593;23;20017;-79
2022/03/20 07:34:27;;;;;;;18.02;10.32;;;;;;;;;;6096244;23;20029;-79
2022/03/20 07:36:55;;;;;;;17.73;12.70;;;;;;;;;;6128018;23;20354;-79
2022/03/20 07:39:23;;;;;;;22.02;13.30;;;;;;;;;;6072388;23;20043;-79
2022/03/20 07:41:51;;;;;;;18.98;12.90;;;;;;;;;;6095154;23;20048;-79
2022/03/20 07:44:25;;;;;;;23.30;16.13;;;;;;;;;;6049522;23;20029;-79
2022/03/20 07:46:54;;;;;;;21.50;13.40;;;;;;;;;;6073067;23;20022;-79
2022/03/20 07:49:22;;;;;;;16.90;13.73;;;;;;;;;;6072244;23;20018;-79
2022/03/20 07:51:53;;;;;;;21.33;11.65;;;;;;;;;;6106278;23;20017;-79
2022/03/20 07:54:24;;;;;;;18.58;11.90;;;;;;;;;;6095657;23;20029;-79
2022/03/20 07:56:52;;;;;;;17.27;12.95;;;;;;;;;;6102076;23;20331;-79
2022/03/20 07:59:20;;;;;;;18.83;13.00;;;;;;;;;;6072432;23;20844;-79
2022/03/20 08:01:48;;;;;;;16.45;11.40;;;;;;;;;;6048727;23;20030;-79
2022/03/20 08:04:16;;;;;;;18.10;13.60;;;;;;;;;;6071978;23;20018;-79
2022/03/20 08:06:44;;;;;;;14.23;10.77;;;;;;;;;;6106834;23;20037;-79
2022/03/20 08:09:13;;;;;;;17.73;11.77;;;;;;;;;;6048026;23;20033;-79
2022/03/20 08:11:43;;;;;;;15.73;10.33;;;;;;;;;;6080377;23;20014;-79
2022/03/20 08:14:14;;;;;;;15.27;13.02;;;;;;;;;;6072044;23;20029;-79
2022/03/20 08:16:43;;;;;;;15.77;12.45;;;;;;;;;;6128849;23;20036;-79
2022/03/20 08:19:12;;;;;;;18.13;13.02;;;;;;;;;;6106302;23;20018;-79
2022/03/20 08:21:41;;;;;;;19.70;13.55;;;;;;;;;;6099073;23;20030;-79
2022/03/20 08:24:09;;;;;;;15.05;13.50;;;;;;;;;;6131269;23;20029;-79
2022/03/20 08:26:37;;;;;;;21.27;14.73;;;;;;;;;;6095961;23;20025;-79
2022/03/20 08:29:07;;;;;;;19.02;12.43;;;;;;;;;;6077484;23;20021;-79
2022/03/20 08:31:36;;;;;;;17.85;12.35;;;;;;;;;;6107601;23;20434;-79
2022/03/20 08:34:05;;;;;;;17.60;12.25;;;;;;;;;;6074879;23;20037;-79
2022/03/20 08:36:34;;;;;;;23.10;13.55;;;;;;;;;;6097754;23;20069;-79
2022/03/20 08:39:03;;;;;;;23.80;11.90;;;;;;;;;;6073950;23;20029;-79
2022/03/20 08:41:32;;;;;;;18.17;13.88;;;;;;;;;;6126963;23;20031;-79
2022/03/20 08:44:01;;;;;;;20.73;13.10;;;;;;;;;;6073591;23;20029;-79
2022/03/20 08:46:29;;;;;;;23.27;13.30;;;;;;;;;;6132300;23;20013;-80
2022/03/20 08:48:58;;;;;;;18.15;12.18;;;;;;;;;;6073166;23;20350;-79
2022/03/20 08:51:26;;;;;;;22.08;14.85;;;;;;;;;;6073882;23;20014;-79
2022/03/20 08:53:54;;;;;;;24.42;15.13;;;;;;;;;;6125554;23;20026;-79
2022/03/20 08:56:22;;;;;;;21.23;14.52;;;;;;;;;;6072372;23;20021;-79
2022/03/20 08:58:51;;;;;;;17.40;11.25;;;;;;;;;;6049473;23;20022;-79
2022/03/20 09:01:21;;;;;;;;;;;;;;;;;;6079214;23;20037;-80
2022/03/20 09:03:51;;;;;;;22.35;13.55;;;;;;;;;;6073972;23;19921;-80
2022/03/20 09:06:21;;;;;;;14.75;10.02;;;;;;;;;;6026933;23;20028;-80
2022/03/20 09:08:49;;;;;;;17.35;11.88;;;;;;;;;;6072904;23;20026;-80
2022/03/20 09:11:18;;;;;;;15.98;11.63;;;;;;;;;;6107148;23;20010;-80
2022/03/20 09:13:46;;;;;;;17.20;12.02;;;;;;;;;;6073012;23;20030;-80
2022/03/20 09:19:07;;;;;;;14.70;9.38;;;;;;;;;;6133175;23;20010;-79
2022/03/20 09:21:36;;;;;;;22.00;8.02;;;;;;;;;;6096983;23;20033;-80
2022/03/20 09:24:05;;;;;;;18.98;13.50;;;;;;;;;;6072901;23;20041;-79
2022/03/20 09:26:33;;;;;;;15.98;12.10;;;;;;;;;;6073831;23;20022;-76
2022/03/20 09:29:02;;;;;;;18.30;11.02;;;;;;;;;;6097266;23;20030;-78
2022/03/20 09:31:31;;;;;;;19.23;11.52;;;;;;;;;;6107654;23;20025;-78
2022/03/20 09:34:01;;;;;;;19.48;12.77;;;;;;;;;;6124891;23;20030;-78
2022/03/20 09:36:29;;;;;;;15.93;11.32;;;;;;;;;;6130291;23;20037;-75
2022/03/20 09:38:57;;;;;;;19.33;12.35;;;;;;;;;;6107311;23;20025;-79
2022/03/20 09:41:30;;;;;;;11.60;10.27;;;;;;;;;;6126357;23;20040;-80
2022/03/20 09:43:58;;;;;;;19.20;12.55;;;;;;;;;;6133134;23;20014;-77
2022/03/20 09:46:26;;;;;;;19.65;10.60;;;;;;;;;;6097062;23;20032;-76
2022/03/20 09:48:56;;;;;;;16.00;9.75;;;;;;;;;;6103268;23;20033;-78
2022/03/20 09:51:24;;;;;;;17.08;12.10;;;;;;;;;;6133708;23;20018;-79
2022/03/20 09:53:52;;;;;;;13.63;10.77;;;;;;;;;;6099555;23;20353;-82
2022/03/20 09:56:20;;;;;;;12.68;10.27;;;;;;;;;;6095147;23;20461;-80
2022/03/20 09:58:48;;;;;;;13.82;9.18;;;;;;;;;;6073467;23;20018;-80
2022/03/20 10:01:18;;;;;;;12.35;9.35;;;;;;;;;;6072778;23;20033;-81
2022/03/20 10:03:46;;;;;;;13.02;9.85;;;;;;;;;;6083592;23;20044;-81
2022/03/20 10:06:19;;;;;;;14.10;9.73;;;;;;;;;;6072670;23;20030;-81
2022/03/20 10:09:00;;;;;;;12.05;8.43;;;;;;;;;;6072390;23;20355;-84
2022/03/20 10:11:30;;;;;;;14.02;12.10;;;;;;;;;;6072544;23;20022;-81
2022/03/20 10:14:10;;;;;;;11.90;8.73;;;;;;;;;;6123650;23;20361;-81
2022/03/20 10:16:55;;;;;;;13.30;11.07;;;;;;;;;;6104250;23;20026;-81
2022/03/20 10:19:24;;;;;;;14.90;11.32;;;;;;;;;;6083238;23;20029;-80
2022/03/20 10:21:57;;;;;;;18.35;9.57;;;;;;;;;;6075490;23;20354;-80
2022/03/20 10:24:26;;;;;;;15.20;10.13;;;;;;;;;;6072063;23;20333;-80
2022/03/20 10:27:00;;;;;;;16.05;10.77;;;;;;;;;;6048687;23;20033;-79
2022/03/20 10:29:30;;;;;;;13.32;11.93;;;;;;;;;;6100280;23;20034;-79
2022/03/20 10:32:01;;;;;;;11.23;9.27;;;;;;;;;;6132261;23;20026;-80
2022/03/20 10:34:29;;;;;;;11.32;9.52;;;;;;;;;;6096098;23;20041;-79
2022/03/20 10:36:57;;;;;;;10.63;8.15;;;;;;;;;;6095484;23;20067;-83
2022/03/20 10:39:27;;;;;;;11.38;7.85;;;;;;;;;;6106664;23;20010;-82
2022/03/20 10:41:57;;;;;;;14.40;8.15;;;;;;;;;;6071273;23;20033;-82
2022/03/20 10:44:31;;;;;;;16.88;8.73;;;;;;;;;;6105455;23;20564;-83
2022/03/20 10:47:10;;;;;;;11.55;8.18;;;;;;;;;;6132969;23;20029;-82
2022/03/20 10:49:38;;;;;;;15.93;9.70;;;;;;;;;;6071857;23;20033;-80
2022/03/20 10:52:11;;;;;;;12.75;9.88;;;;;;;;;;6105667;23;20454;-80
2022/03/20 10:54:43;;;;;;;12.60;10.77;;;;;;;;;;6096563;23;20021;-80
2022/03/20 10:57:13;;;;;;;15.13;9.80;;;;;;;;;;6126492;23;20029;-78
2022/03/20 10:59:42;;;;;;;12.40;10.30;;;;;;;;;;6094581;23;20382;-78
2022/03/20 11:02:21;;;;;;;12.07;8.10;;;;;;;;;;6097123;23;20354;-78
2022/03/20 11:04:50;;;;;;;15.73;10.23;;;;;;;;;;6128860;23;20041;-79
2022/03/20 11:07:18;;;;;;;18.48;9.23;;;;;;;;;;6106343;23;20025;-78
2022/03/20 11:09:50;;;;;;;14.07;9.10;;;;;;;;;;6124822;23;20026;-78
2022/03/20 11:12:22;;;;;;;14.68;10.27;;;;;;;;;;6100987;23;20430;-78
2022/03/20 11:14:52;;;;;;;13.68;8.02;;;;;;;;;;6132606;23;20465;-79
2022/03/20 11:17:22;;;;;;;14.10;10.05;;;;;;;;;;6097508;23;20026;-78
2022/03/20 11:19:51;;;;;;;15.52;11.10;;;;;;;;;;6048700;23;20014;-78
2022/03/20 11:22:20;;;;;;;11.60;9.38;;;;;;;;;;6096398;23;20379;-78
2022/03/20 11:24:50;;;;;;;20.23;10.40;;;;;;;;;;6121598;23;20026;-78
2022/03/20 11:27:27;;;;;;;20.80;10.02;;;;;;;;;;6094944;23;20018;-78
2022/03/20 11:30:02;;;;;;;12.65;9.13;;;;;;;;;;6124309;23;20500;-78
2022/03/20 11:32:30;;;;;;;15.30;11.73;;;;;;;;;;6100841;23;20025;-78
2022/03/20 11:34:59;;;;;;;13.75;11.80;;;;;;;;;;6132247;23;20014;-78
2022/03/20 11:37:43;;;;;;;12.93;9.50;;;;;;;;;;6072037;23;20029;-78
2022/03/20 11:40:22;;;;;;;10.05;7.35;;;;;;;;;;6131054;23;20010;-79
2022/03/20 11:42:51;;;;;;;8.18;7.47;;;;;;;;;;6106647;23;20017;-78
2022/03/20 11:45:20;;;;;;;10.73;7.97;;;;;;;;;;6126600;23;20033;-78
2022/03/20 11:47:50;;;;;;;9.93;7.50;;;;;;;;;;6095536;23;20334;-78
2022/03/20 11:50:28;;;;;;;11.60;8.88;;;;;;;;;;6047826;23;20048;-78
2022/03/20 11:52:58;;;;;;;14.23;9.50;;;;;;;;;;6127899;23;20022;-78
2022/03/20 11:55:43;;;;;;;13.45;12.00;;;;;;;;;;6095696;23;20029;-78
2022/03/20 11:58:24;;;;;;;12.85;8.45;;;;;;;;;;6095380;23;20029;-79
2022/03/20 12:01:05;;;;;;;14.10;10.98;;;;;;;;;;6127864;23;20030;-78
2022/03/20 12:03:47;;;;;;;15.85;10.32;;;;;;;;;;6132450;23;20025;-80
2022/03/20 12:06:21;;;;;;;11.65;8.27;;;;;;;;;;6099282;23;20030;-79
2022/03/20 12:09:00;;;;;;;16.00;11.15;;;;;;;;;;6107022;23;20420;-78
2022/03/20 12:11:47;;;;;;;13.25;9.68;;;;;;;;;;6136882;23;20291;-79
2022/03/20 12:14:15;;;;;;;14.98;10.38;;;;;;;;;;6101112;23;20022;-79
2022/03/20 12:16:43;;;;;;;14.43;10.20;;;;;;;;;;6134013;23;20033;-78
2022/03/20 12:19:13;;;;;;;17.65;13.63;;;;;;;;;;6135687;23;20025;-80
2022/03/20 12:22:04;;;;;;;20.75;13.73;;;;;;;;;;6075064;23;20037;-79
2022/03/20 12:24:41;;;;;;;17.38;11.85;;;;;;;;;;6088680;23;20030;-78
2022/03/20 12:27:24;;;;;;;10.73;9.18;;;;;;;;;;6108331;23;20013;-80
2022/03/20 12:29:53;;;;;;;15.63;8.95;;;;;;;;;;6102701;23;20018;-78
2022/03/20 12:32:48;;;;;;;17.85;10.23;;;;;;;;;;6085894;23;20497;-78
2022/03/20 12:35:20;;;;;;;14.10;8.88;;;;;;;;;;6080408;23;20022;-79
2022/03/20 12:37:49;;;;;;;12.55;9.45;;;;;;;;;;6073523;23;20029;-78
2022/03/20 12:40:21;;;;;;;14.40;8.45;;;;;;;;;;6073642;23;20021;-78
2022/03/20 12:43:10;;;;;;;12.02;9.73;;;;;;;;;;6108160;23;20025;-78
2022/03/20 12:45:43;;;;;;;15.30;11.85;;;;;;;;;;6097644;23;20029;-79
2022/03/20 12:48:12;;;;;;;13.57;8.70;;;;;;;;;;6105964;23;20018;-78
2022/03/20 12:50:41;;;;;;;12.00;8.93;;;;;;;;;;6133867;23;20025;-78
2022/03/20 12:53:14;;;;;;;14.70;9.25;;;;;;;;;;6097087;23;20479;-77
2022/03/20 12:55:47;;;;;;;15.52;9.50;;;;;;;;;;6132594;23;20053;-84
2022/03/20 12:58:20;;;;;;;16.30;10.00;;;;;;;;;;6072954;23;20028;-81
2022/03/20 13:00:48;;;;;;;19.20;10.93;;;;;;;;;;6103610;23;20036;-77
2022/03/20 13:03:17;;;;;;;15.20;9.68;;;;;;;;;;6133688;23;20018;-79
2022/03/20 13:05:45;;;;;;;12.27;9.20;;;;;;;;;;6073095;23;20034;-80
2022/03/20 13:08:24;;;;;;;11.40;8.43;;;;;;;;;;6096930;23;20041;-80
2022/03/20 13:10:56;;;;;;;11.43;8.93;;;;;;;;;;6074010;23;20029;-80
2022/03/20 13:13:34;;;;;;;15.10;10.82;;;;;;;;;;6126126;23;20030;-79
2022/03/20 13:16:03;;;;;;;11.52;9.52;;;;;;;;;;6133196;23;20013;-79
2022/03/20 13:18:32;;;;;;;19.27;10.50;;;;;;;;;;6107173;23;20611;-80
2022/03/20 13:21:07;;;;;;;10.32;8.55;;;;;;;;;;6128787;23;20029;-79
2022/03/20 13:23:35;;;;;;;11.57;8.43;;;;;;;;;;6133493;23;20057;-78
2022/03/20 13:26:03;;;;;;;14.55;10.57;;;;;;;;;;6098247;23;20022;-79
2022/03/20 13:28:33;;;;;;;12.23;9.23;;;;;;;;;;6073097;23;20037;-80
2022/03/20 13:31:10;;;;;;;12.57;8.80;;;;;;;;;;6073993;23;20323;-79
2022/03/20 13:33:53;;;;;;;12.23;8.18;;;;;;;;;;6101263;23;20032;-79
2022/03/20 13:36:21;;;;;;;;;;;;;;;;;;6073525;23;20026;-79
2022/03/20 13:38:50;;;;;;;16.55;9.50;;;;;;;;;;6133313;23;19921;-80
2022/03/20 13:41:21;;;;;;;10.30;8.15;;;;;;;;;;6100872;23;20026;-80
2022/03/20 13:43:55;;;;;;;9.07;8.07;;;;;;;;;;6133710;23;20580;-80
2022/03/20 13:46:27;;;;;;;14.23;9.05;;;;;;;;;;6097471;23;20022;-80
2022/03/20 13:48:58;;;;;;;16.35;9.70;;;;;;;;;;6079182;23;20022;-80
2022/03/20 13:51:27;;;;;;;16.92;9.25;;;;;;;;;;6107248;23;20041;-79
2022/03/20 13:54:14;;;;;;;9.00;6.97;;;;;;;;;;6125459;23;20022;-80
2022/03/20 13:56:42;;;;;;;24.55;8.20;;;;;;;;;;6103555;23;20035;-79
2022/03/20 13:59:12;;;;;;;11.30;8.63;;;;;;;;;;6133040;23;20727;-80
2022/03/20 14:01:43;;;;;;;15.75;9.65;;;;;;;;;;6126215;23;20042;-80
2022/03/20 14:04:11;;;;;;;;;;;;;;;;;;6083159;23;20014;-80
2022/03/20 14:06:40;;;;;;;10.38;8.50;;;;;;;;;;6107202;23;20644;-80
2022/03/20 14:09:09;;;;;;;8.38;6.93;;;;;;;;;;6127865;23;20350;-80
2022/03/20 14:11:37;;;;;;;11.85;7.88;;;;;;;;;;6132670;23;20334;-79
2022/03/20 14:14:06;;;;;;;14.93;8.82;;;;;;;;;;6096908;23;20018;-80
2022/03/20 14:16:37;;;;;;;14.70;8.88;;;;;;;;;;6130477;23;20029;-80
2022/03/20 14:19:11;;;;;;;;;;;;;;;;;;6073710;23;20021;-80
2022/03/20 14:21:39;;;;;;;12.70;8.55;;;;;;;;;;6096308;23;19921;-80
2022/03/20 14:24:12;;;;;;;12.80;9.20;;;;;;;;;;6048655;23;20063;-80
2022/03/20 14:26:46;;;;;;;12.00;10.05;;;;;;;;;;6073206;23;20053;-80
2022/03/20 14:40:58;;;;;;;13.05;11.40;;;;;;;;;;6072309;23;20029;-81
2022/03/20 14:43:31;;;;;;;11.23;8.55;;;;;;;;;;6097317;23;20025;-80
2022/03/20 14:46:00;;;;;;;13.93;9.32;;;;;;;;;;6073143;23;20030;-80
2022/03/20 14:48:29;;;;;;;11.60;8.52;;;;;;;;;;6104773;23;20022;-79
2022/03/20 14:51:00;;;;;;;11.07;9.20;;;;;;;;;;6096403;23;20018;-80
2022/03/20 14:53:32;;;;;;;13.18;7.80;;;;;;;;;;6100561;23;20714;-81
2022/03/20 14:56:01;;;;;;;13.80;7.78;;;;;;;;;;6096524;23;20014;-80
2022/03/20 14:58:29;;;;;;;12.98;8.70;;;;;;;;;;6071292;23;20029;-80
2022/03/20 15:00:57;;;;;;;14.07;9.43;;;;;;;;;;6102688;23;20021;-80
2022/03/20 15:03:26;;;;;;;14.35;7.93;;;;;;;;;;6107056;23;20014;-80
2022/03/20 15:05:56;;;;;;;14.38;10.73;;;;;;;;;;6067663;23;20022;-78
2022/03/20 15:11:31;;;;;;;16.55;7.95;;;;;;;;;;6106076;23;20010;-74
2022/03/20 15:14:00;;;;;;;11.35;7.28;;;;;;;;;;6120737;23;20022;-74
2022/03/20 15:16:28;;;;;;;9.63;7.88;;;;;;;;;;6130748;23;20025;-75
2022/03/20 15:18:57;;;;;;;12.13;9.68;;;;;;;;;;6131853;23;20014;-73
2022/03/20 15:21:34;;;;;;;11.13;9.07;;;;;;;;;;6126110;23;20037;-73
2022/03/20 15:24:10;;;;;;;9.02;7.63;;;;;;;;;;6131435;23;20014;-73
2022/03/20 15:26:38;;;;;;;10.35;8.13;;;;;;;;;;6126086;23;20014;-73
2022/03/20 15:29:07;;;;;;;12.43;9.43;;;;;;;;;;6126620;23;20037;-72